Time;durP1;ratioP1;P1;durP2;ratioP2;P2;SDS_P1;SDS_P2;PMS_P1;PMS_P2;Temp;Humidity;BMP_temperature;BMP_pressure;BME280_temperature;BME280_humidity;BME280_pressure;Samples;Min_cycle;Max_cycle;Signal;HPM_P1;HPM_P2
2022/05/06 00:01:36;;;;;;;17.70;13.23;;;;;;;;;;5006637;28;20466;-64
2022/05/06 00:04:04;;;;;;;18.87;12.57;;;;;;;;;;5018806;28;20456;-63
2022/05/06 00:06:31;;;;;;;17.63;12.97;;;;;;;;;;5008957;28;20477;-63
2022/05/06 00:08:57;;;;;;;17.87;12.13;;;;;;;;;;5008825;28;20977;-63
2022/05/06 00:11:24;;;;;;;27.70;12.87;;;;;;;;;;5007680;28;20465;-63
2022/05/06 00:13:52;;;;;;;44.93;14.03;;;;;;;;;;5017087;28;20541;-63
2022/05/06 00:16:19;;;;;;;93.27;16.03;;;;;;;;;;5022724;28;21334;-63
2022/05/06 00:18:46;;;;;;;44.50;15.17;;;;;;;;;;5016458;28;21207;-63
2022/05/06 00:21:13;;;;;;;20.30;14.57;;;;;;;;;;5026943;28;20504;-63
2022/05/06 00:23:40;;;;;;;26.83;15.07;;;;;;;;;;5025630;28;21200;-64
2022/05/06 00:26:07;;;;;;;31.90;14.40;;;;;;;;;;5027035;28;20508;-63
2022/05/06 00:28:34;;;;;;;21.30;13.83;;;;;;;;;;5026378;28;20471;-64
2022/05/06 00:31:01;;;;;;;19.67;12.73;;;;;;;;;;5009090;28;20491;-63
2022/05/06 00:33:28;;;;;;;36.73;15.40;;;;;;;;;;5016556;28;20528;-63
2022/05/06 00:36:00;;;;;;;44.83;14.37;;;;;;;;;;5022753;28;20987;-64
2022/05/06 00:38:27;;;;;;;73.33;13.40;;;;;;;;;;5006885;28;20454;-63
2022/05/06 00:40:53;;;;;;;33.30;11.33;;;;;;;;;;5033067;28;20984;-63
2022/05/06 00:43:20;;;;;;;24.97;13.60;;;;;;;;;;5025261;28;20454;-64
2022/05/06 00:45:48;;;;;;;15.53;11.40;;;;;;;;;;5007561;28;20481;-63
2022/05/06 00:48:16;;;;;;;20.07;11.70;;;;;;;;;;5014752;28;20481;-63
2022/05/06 00:50:43;;;;;;;38.97;13.23;;;;;;;;;;5008518;28;21295;-63
2022/05/06 00:53:10;;;;;;;27.00;13.07;;;;;;;;;;5025220;28;20478;-63
2022/05/06 00:55:56;;;;;;;40.90;14.03;;;;;;;;;;4998187;28;20439;-63
2022/05/06 00:58:23;;;;;;;17.63;13.63;;;;;;;;;;4990597;28;20564;-63
2022/05/06 01:00:50;;;;;;;20.20;14.23;;;;;;;;;;5009286;28;20462;-63
2022/05/06 01:03:17;;;;;;;20.43;12.77;;;;;;;;;;5020317;28;20543;-63
2022/05/06 01:06:05;;;;;;;24.30;13.07;;;;;;;;;;5011668;28;20872;-63
2022/05/06 01:08:32;;;;;;;24.80;12.80;;;;;;;;;;5025612;28;20452;-64
2022/05/06 01:10:59;;;;;;;19.17;12.97;;;;;;;;;;5026374;28;20459;-63
2022/05/06 01:13:27;;;;;;;20.17;13.30;;;;;;;;;;5000148;28;20461;-63
2022/05/06 01:15:55;;;;;;;15.60;11.77;;;;;;;;;;5019758;28;20477;-63
2022/05/06 01:18:37;;;;;;;17.33;13.07;;;;;;;;;;5008647;28;20461;-63
2022/05/06 01:21:04;;;;;;;14.67;11.80;;;;;;;;;;5024964;28;20497;-63
2022/05/06 01:23:30;;;;;;;19.83;13.17;;;;;;;;;;5005957;28;20552;-63
2022/05/06 01:25:58;;;;;;;20.63;14.70;;;;;;;;;;5005305;28;21003;-63
2022/05/06 01:28:24;;;;;;;23.30;14.70;;;;;;;;;;5007966;28;20457;-63
2022/05/06 01:30:54;;;;;;;19.10;14.17;;;;;;;;;;5009069;28;20480;-63
2022/05/06 01:33:21;;;;;;;18.70;14.30;;;;;;;;;;5021077;28;20793;-63
2022/05/06 01:35:52;;;;;;;20.00;13.40;;;;;;;;;;4993371;28;20479;-63
2022/05/06 01:38:21;;;;;;;54.50;12.43;;;;;;;;;;5028262;28;20500;-63
2022/05/06 01:40:50;;;;;;;19.70;10.57;;;;;;;;;;5021623;28;20449;-63
2022/05/06 01:43:18;;;;;;;42.00;12.03;;;;;;;;;;5012757;28;20511;-63
2022/05/06 01:45:46;;;;;;;40.97;12.17;;;;;;;;;;5010565;28;20474;-63
2022/05/06 01:48:16;;;;;;;14.80;11.23;;;;;;;;;;4993637;28;20461;-63
2022/05/06 01:50:48;;;;;;;18.17;12.13;;;;;;;;;;4994911;28;20495;-63
2022/05/06 01:53:19;;;;;;;17.27;11.67;;;;;;;;;;5025708;28;20449;-62
2022/05/06 01:55:49;;;;;;;16.47;11.50;;;;;;;;;;5010011;28;20818;-63
2022/05/06 01:58:21;;;;;;;15.97;10.73;;;;;;;;;;5009138;28;20458;-63
2022/05/06 02:00:53;;;;;;;14.20;10.80;;;;;;;;;;5012207;28;20463;-63
2022/05/06 02:06:15;;;;;;;14.57;10.63;;;;;;;;;;5029888;28;20832;-63
2022/05/06 02:08:45;;;;;;;16.27;11.47;;;;;;;;;;5009452;28;20464;-63
2022/05/06 02:11:19;;;;;;;17.60;10.83;;;;;;;;;;4999715;28;20456;-63
2022/05/06 02:13:46;;;;;;;19.70;9.97;;;;;;;;;;5011585;28;20467;-63
2022/05/06 02:16:33;;;;;;;16.80;11.40;;;;;;;;;;5029122;28;20599;-63
2022/05/06 02:19:24;;;;;;;18.80;11.73;;;;;;;;;;5030305;28;20807;-76
2022/05/06 02:22:06;;;;;;;17.17;11.10;;;;;;;;;;5013018;28;20440;-76
2022/05/06 02:24:42;;;;;;;16.43;11.40;;;;;;;;;;4992411;28;20476;-76
2022/05/06 02:27:37;;;;;;;14.77;11.00;;;;;;;;;;5007999;28;20950;-76
2022/05/06 02:33:14;;;;;;;16.20;10.57;;;;;;;;;;5013734;28;20657;-76
2022/05/06 02:36:13;;;;;;;15.00;10.97;;;;;;;;;;5004593;28;20436;-76
2022/05/06 02:38:43;;;;;;;15.17;11.97;;;;;;;;;;5014454;28;21083;-78
2022/05/06 02:41:15;;;;;;;20.13;12.73;;;;;;;;;;5021828;28;20444;-78
2022/05/06 02:43:48;;;;;;;22.10;13.50;;;;;;;;;;5014596;28;20811;-78
2022/05/06 02:46:39;;;;;;;16.63;11.97;;;;;;;;;;5012722;28;20468;-77
2022/05/06 02:49:06;;;;;;;14.63;10.83;;;;;;;;;;5015054;28;20456;-78
2022/05/06 02:51:35;;;;;;;13.97;11.47;;;;;;;;;;5022596;28;20475;-74
2022/05/06 02:54:07;;;;;;;18.07;11.77;;;;;;;;;;4995178;28;21260;-78
2022/05/06 03:00:26;;;;;;;19.70;12.00;;;;;;;;;;5021788;28;20528;-75
2022/05/06 03:02:59;;;;;;;20.57;11.90;;;;;;;;;;5016744;28;20553;-78
2022/05/06 03:05:35;;;;;;;16.03;11.30;;;;;;;;;;5012853;28;20581;-76
2022/05/06 03:08:05;;;;;;;16.87;11.17;;;;;;;;;;5018882;28;20453;-79
2022/05/06 03:10:33;;;;;;;15.77;11.17;;;;;;;;;;5013430;28;20485;-80
2022/05/06 03:13:03;;;;;;;15.03;10.73;;;;;;;;;;5027965;28;20565;-75
2022/05/06 03:15:36;;;;;;;16.23;11.17;;;;;;;;;;5024049;28;20795;-80
2022/05/06 03:18:48;;;;;;;18.20;11.50;;;;;;;;;;5005754;28;20431;-80
2022/05/06 03:21:39;;;;;;;15.77;11.67;;;;;;;;;;4993109;28;21160;-77
2022/05/06 03:24:18;;;;;;;18.13;11.33;;;;;;;;;;5010317;28;21157;-79
2022/05/06 03:26:48;;;;;;;17.10;11.77;;;;;;;;;;5020187;28;20496;-76
2022/05/06 03:29:15;;;;;;;16.87;11.33;;;;;;;;;;5012134;28;20471;-79
2022/05/06 03:35:56;;;;;;;15.70;12.07;;;;;;;;;;5021451;28;20465;-78
2022/05/06 03:38:26;;;;;;;15.97;11.87;;;;;;;;;;5006143;28;20563;-79
2022/05/06 03:40:57;;;;;;;16.43;11.57;;;;;;;;;;5014692;28;20483;-80
2022/05/06 03:43:27;;;;;;;15.57;11.47;;;;;;;;;;5006845;28;21044;-74
2022/05/06 03:45:57;;;;;;;20.07;13.77;;;;;;;;;;5011342;28;20494;-79
2022/05/06 03:48:28;;;;;;;16.67;12.77;;;;;;;;;;5023075;28;20453;-78
2022/05/06 03:51:21;;;;;;;18.07;11.90;;;;;;;;;;5005037;28;20553;-77
2022/05/06 03:53:58;;;;;;;20.23;12.73;;;;;;;;;;4996224;28;20456;-78
2022/05/06 03:56:29;;;;;;;24.67;14.70;;;;;;;;;;5025290;28;20484;-78
2022/05/06 03:59:00;;;;;;;23.83;14.30;;;;;;;;;;5021111;28;20952;-79
2022/05/06 04:01:28;;;;;;;19.33;13.00;;;;;;;;;;5016103;28;20460;-77
2022/05/06 04:03:56;;;;;;;16.13;11.23;;;;;;;;;;5012345;28;20449;-78
2022/05/06 04:06:29;;;;;;;16.77;11.53;;;;;;;;;;5025133;28;20476;-83
2022/05/06 04:08:58;;;;;;;16.33;11.00;;;;;;;;;;5023553;28;20442;-79
2022/05/06 04:11:29;;;;;;;17.47;11.30;;;;;;;;;;5023759;28;20845;-76
2022/05/06 04:14:02;;;;;;;17.73;11.27;;;;;;;;;;5027316;28;20528;-80
2022/05/06 04:16:32;;;;;;;17.73;12.40;;;;;;;;;;5006612;28;20478;-77
2022/05/06 04:19:03;;;;;;;16.97;12.13;;;;;;;;;;5037078;28;21013;-79
2022/05/06 04:24:53;;;;;;;18.43;10.87;;;;;;;;;;4979350;28;20308;-80
2022/05/06 04:27:26;;;;;;;18.40;11.20;;;;;;;;;;5010572;28;20218;-82
2022/05/06 04:29:59;;;;;;;16.83;10.13;;;;;;;;;;5033462;28;20954;-85
2022/05/06 04:32:48;;;;;;;20.60;10.60;;;;;;;;;;5028629;28;20226;-80
2022/05/06 04:35:16;;;;;;;18.10;10.00;;;;;;;;;;5014224;28;20203;-78
2022/05/06 04:38:03;;;;;;;17.80;10.40;;;;;;;;;;5035679;28;20445;-75
2022/05/06 04:40:33;;;;;;;16.13;10.70;;;;;;;;;;5022917;28;20572;-79
2022/05/06 04:43:03;;;;;;;16.13;10.13;;;;;;;;;;4993784;28;20203;-76
2022/05/06 04:45:38;;;;;;;15.77;10.47;;;;;;;;;;5012537;28;20202;-75
2022/05/06 04:48:26;;;;;;;14.07;9.70;;;;;;;;;;5000113;28;20175;-72
2022/05/06 04:50:56;;;;;;;15.43;10.33;;;;;;;;;;5008822;28;20766;-76
2022/05/06 04:53:25;;;;;;;17.80;10.90;;;;;;;;;;5033152;28;20197;-75
2022/05/06 04:55:55;;;;;;;15.93;10.50;;;;;;;;;;5037183;28;20183;-75
2022/05/06 04:58:34;;;;;;;15.97;10.40;;;;;;;;;;5019588;28;20247;-75
2022/05/06 05:01:05;;;;;;;15.60;10.33;;;;;;;;;;5012845;28;20203;-82
2022/05/06 05:03:36;;;;;;;18.07;11.17;;;;;;;;;;4997317;28;20207;-78
2022/05/06 05:06:07;;;;;;;14.90;9.93;;;;;;;;;;5035813;28;20569;-77
2022/05/06 05:08:36;;;;;;;14.97;9.63;;;;;;;;;;5007150;28;20291;-77
2022/05/06 05:11:04;;;;;;;17.97;9.47;;;;;;;;;;5014738;28;20203;-79
2022/05/06 05:13:56;;;;;;;13.43;9.47;;;;;;;;;;5013202;28;20210;-76
2022/05/06 05:16:32;;;;;;;15.77;9.70;;;;;;;;;;5010809;28;20229;-74
2022/05/06 05:19:00;;;;;;;13.93;8.47;;;;;;;;;;5034305;28;20956;-79
2022/05/06 05:21:33;;;;;;;12.87;9.63;;;;;;;;;;5034839;28;20618;-74
2022/05/06 05:24:02;;;;;;;13.30;8.73;;;;;;;;;;4999281;28;20237;-74
2022/05/06 05:26:30;;;;;;;12.90;9.00;;;;;;;;;;5024640;28;20561;-73
2022/05/06 05:28:57;;;;;;;15.53;9.23;;;;;;;;;;5024142;28;20626;-74
2022/05/06 05:31:26;;;;;;;12.80;8.80;;;;;;;;;;5016214;28;20265;-84
2022/05/06 05:33:54;;;;;;;14.67;9.80;;;;;;;;;;5002434;28;20196;-77
2022/05/06 05:36:23;;;;;;;10.67;8.47;;;;;;;;;;5013350;28;20207;-76
2022/05/06 05:38:53;;;;;;;13.27;9.67;;;;;;;;;;5000220;28;20253;-78
2022/05/06 05:41:20;;;;;;;13.60;9.03;;;;;;;;;;5052102;28;20917;-77
2022/05/06 05:49:26;;;;;;;9.97;7.33;;;;;;;;;;5033925;28;20191;-76
2022/05/06 05:51:53;;;;;;;12.40;8.50;;;;;;;;;;5033287;28;20202;-76
2022/05/06 05:54:21;;;;;;;13.17;7.97;;;;;;;;;;4992123;28;20200;-79
2022/05/06 05:56:49;;;;;;;11.10;7.47;;;;;;;;;;5013849;28;20316;-73
2022/05/06 05:59:17;;;;;;;11.07;7.43;;;;;;;;;;5013963;28;20418;-76
2022/05/06 06:01:46;;;;;;;11.27;7.60;;;;;;;;;;5012295;28;20849;-76
2022/05/06 06:04:13;;;;;;;13.70;7.70;;;;;;;;;;4993983;28;20199;-76
2022/05/06 06:06:44;;;;;;;12.10;6.73;;;;;;;;;;4978028;28;20247;-77
2022/05/06 06:09:13;;;;;;;10.87;6.47;;;;;;;;;;4993869;28;20228;-74
2022/05/06 06:11:43;;;;;;;8.60;6.47;;;;;;;;;;4978428;28;20245;-74
2022/05/06 06:14:13;;;;;;;10.27;6.43;;;;;;;;;;5025330;28;20889;-75
2022/05/06 06:16:42;;;;;;;10.87;6.93;;;;;;;;;;5031567;28;20528;-76
2022/05/06 06:19:10;;;;;;;9.63;6.77;;;;;;;;;;5014185;28;20253;-75
2022/05/06 06:21:42;;;;;;;9.77;6.63;;;;;;;;;;5013582;28;20217;-75
2022/05/06 06:24:11;;;;;;;8.40;6.13;;;;;;;;;;5030623;28;20704;-76
2022/05/06 06:26:39;;;;;;;10.93;6.30;;;;;;;;;;5012634;28;20242;-76
2022/05/06 06:29:12;;;;;;;10.40;6.60;;;;;;;;;;5012963;28;20202;-76
2022/05/06 06:31:39;;;;;;;8.87;6.70;;;;;;;;;;5012557;28;20234;-76
2022/05/06 06:34:07;;;;;;;9.43;6.40;;;;;;;;;;5029981;28;20202;-76
2022/05/06 06:36:37;;;;;;;6.70;5.53;;;;;;;;;;5012093;28;20207;-76
2022/05/06 06:39:04;;;;;;;8.67;5.17;;;;;;;;;;5015803;28;20249;-75
2022/05/06 06:41:35;;;;;;;8.03;5.00;;;;;;;;;;5050160;28;20634;-75
2022/05/06 06:44:02;;;;;;;11.37;5.50;;;;;;;;;;5031751;28;20201;-76
2022/05/06 06:47:07;;;;;;;7.40;5.00;;;;;;;;;;5019521;28;20301;-75
2022/05/06 06:49:49;;;;;;;7.57;4.80;;;;;;;;;;5049793;28;20542;-76
2022/05/06 06:52:35;;;;;;;5.20;3.97;;;;;;;;;;5049638;28;20252;-76
2022/05/06 06:55:02;;;;;;;6.10;4.40;;;;;;;;;;5031447;28;20240;-75
2022/05/06 06:57:30;;;;;;;6.47;4.40;;;;;;;;;;5031578;28;20182;-75
2022/05/06 06:59:57;;;;;;;7.37;4.17;;;;;;;;;;5032261;28;20244;-75
2022/05/06 07:02:25;;;;;;;8.73;4.43;;;;;;;;;;5049536;28;20191;-74
2022/05/06 07:04:52;;;;;;;5.53;4.10;;;;;;;;;;5031407;28;20248;-75
2022/05/06 07:12:52;;;;;;;5.57;3.90;;;;;;;;;;5049347;28;20616;-75
2022/05/06 07:15:18;;;;;;;5.33;3.50;;;;;;;;;;5014558;28;20256;-75
2022/05/06 07:17:45;;;;;;;4.93;3.80;;;;;;;;;;5031402;28;20206;-74
2022/05/06 07:20:12;;;;;;;6.13;3.67;;;;;;;;;;5048927;28;20579;-75
2022/05/06 07:22:57;;;;;;;4.80;2.80;;;;;;;;;;5033850;28;20256;-74
2022/05/06 07:25:24;;;;;;;5.77;3.50;;;;;;;;;;4984254;28;1875087;-74
2022/05/06 07:27:51;;;;;;;5.07;3.13;;;;;;;;;;5031694;28;20709;-75
2022/05/06 07:30:18;;;;;;;4.23;2.80;;;;;;;;;;5031913;28;20206;-74
2022/05/06 07:32:45;;;;;;;4.73;2.90;;;;;;;;;;5049151;28;20201;-74
2022/05/06 07:35:12;;;;;;;5.33;3.03;;;;;;;;;;5049505;28;20197;-74
2022/05/06 07:37:41;;;;;;;5.80;2.93;;;;;;;;;;5049456;28;20570;-74
2022/05/06 07:40:11;;;;;;;6.37;3.63;;;;;;;;;;5036953;28;20549;-74
2022/05/06 07:42:38;;;;;;;4.00;3.10;;;;;;;;;;5029486;28;20188;-74
2022/05/06 07:45:05;;;;;;;3.20;2.90;;;;;;;;;;5011850;28;20215;-73
2022/05/06 07:47:32;;;;;;;4.80;3.30;;;;;;;;;;5011589;28;20894;-74
2022/05/06 07:50:18;;;;;;;6.47;3.23;;;;;;;;;;5029335;28;20192;-73
2022/05/06 07:52:46;;;;;;;4.13;3.13;;;;;;;;;;5029375;28;20198;-73
2022/05/06 07:55:16;;;;;;;5.40;3.23;;;;;;;;;;5011284;28;20199;-72
2022/05/06 07:57:43;;;;;;;6.37;3.23;;;;;;;;;;5029038;28;20191;-73
2022/05/06 08:00:11;;;;;;;4.50;3.17;;;;;;;;;;5029214;28;20191;-74
2022/05/06 08:05:27;;;;;;;3.57;2.93;;;;;;;;;;5028785;28;20272;-72
2022/05/06 08:07:55;;;;;;;4.53;3.00;;;;;;;;;;5029010;28;20226;-73
2022/05/06 08:10:22;;;;;;;4.17;3.03;;;;;;;;;;5027407;28;20213;-72
2022/05/06 08:12:50;;;;;;;4.13;2.83;;;;;;;;;;5027734;28;20253;-72
2022/05/06 08:15:17;;;;;;;4.00;3.43;;;;;;;;;;5028661;28;20307;-73
2022/05/06 08:17:44;;;;;;;4.37;2.97;;;;;;;;;;5027867;28;20245;-73
2022/05/06 08:20:12;;;;;;;5.00;3.30;;;;;;;;;;5028605;28;20191;-72
2022/05/06 08:22:39;;;;;;;4.77;3.30;;;;;;;;;;5028452;28;20179;-73
2022/05/06 08:25:06;;;;;;;4.70;2.97;;;;;;;;;;5028351;28;20275;-72
2022/05/06 08:27:54;;;;;;;5.60;3.07;;;;;;;;;;5028511;28;20210;-72
2022/05/06 08:30:21;;;;;;;3.57;2.90;;;;;;;;;;5028131;28;20222;-72
2022/05/06 08:32:49;;;;;;;5.27;3.50;;;;;;;;;;5027555;28;20520;-73
2022/05/06 08:35:17;;;;;;;6.33;3.30;;;;;;;;;;5027166;28;21064;-72
2022/05/06 08:37:45;;;;;;;4.00;2.90;;;;;;;;;;5028383;28;20187;-73
2022/05/06 08:40:16;;;;;;;4.73;3.13;;;;;;;;;;5041075;28;20218;-73
2022/05/06 08:42:44;;;;;;;5.27;3.23;;;;;;;;;;5030860;28;20225;-71
2022/05/06 08:50:53;;;;;;;5.73;3.17;;;;;;;;;;5048470;28;20203;-73
2022/05/06 08:53:21;;;;;;;4.47;3.13;;;;;;;;;;5031231;28;20659;-72
2022/05/06 08:55:48;;;;;;;4.17;2.80;;;;;;;;;;5048177;28;20190;-73
2022/05/06 08:58:16;;;;;;;7.17;3.23;;;;;;;;;;5048109;28;20256;-72
2022/05/06 09:00:43;;;;;;;5.27;2.90;;;;;;;;;;5048111;28;20665;-73
2022/05/06 09:03:10;;;;;;;4.47;3.10;;;;;;;;;;5030023;28;20203;-72
2022/05/06 09:05:50;;;;;;;4.30;2.93;;;;;;;;;;5014425;28;20202;-72
2022/05/06 09:08:17;;;;;;;5.10;3.10;;;;;;;;;;5047848;28;20211;-72
2022/05/06 09:10:57;;;;;;;4.97;3.23;;;;;;;;;;5030147;28;20677;-71
2022/05/06 09:13:24;;;;;;;5.37;3.03;;;;;;;;;;5047955;28;20198;-73
2022/05/06 09:18:37;;;;;;;3.03;2.73;;;;;;;;;;5033087;28;20214;-73
2022/05/06 09:21:21;;;;;;;4.77;2.80;;;;;;;;;;5047404;28;20858;-73
2022/05/06 09:23:49;;;;;;;8.60;3.00;;;;;;;;;;5048040;28;20250;-73
2022/05/06 09:26:18;;;;;;;4.27;2.70;;;;;;;;;;5047960;28;21065;-73
2022/05/06 09:28:45;;;;;;;4.40;3.10;;;;;;;;;;5047739;28;20215;-73
2022/05/06 09:31:12;;;;;;;5.33;3.57;;;;;;;;;;5047947;28;20434;-74
2022/05/06 09:33:40;;;;;;;4.80;2.97;;;;;;;;;;5047795;28;20229;-73
2022/05/06 09:36:26;;;;;;;4.47;3.13;;;;;;;;;;5047536;28;20277;-74
2022/05/06 09:39:06;;;;;;;3.03;2.50;;;;;;;;;;5027871;28;20190;-73
2022/05/06 09:41:34;;;;;;;2.93;2.23;;;;;;;;;;5028212;28;20195;-73
2022/05/06 09:44:04;;;;;;;3.50;2.43;;;;;;;;;;5027245;28;20307;-73
2022/05/06 09:46:31;;;;;;;3.90;2.30;;;;;;;;;;5027797;28;20188;-73
2022/05/06 09:48:58;;;;;;;2.90;2.30;;;;;;;;;;5026035;28;20617;-73
2022/05/06 09:51:35;;;;;;;3.10;2.33;;;;;;;;;;5026615;28;20242;-73
2022/05/06 09:54:03;;;;;;;5.70;3.10;;;;;;;;;;5026362;28;20191;-73
2022/05/06 09:56:29;;;;;;;5.80;3.00;;;;;;;;;;5027717;28;20309;-72
2022/05/06 09:58:59;;;;;;;3.37;2.70;;;;;;;;;;5031346;28;20191;-73
2022/05/06 10:01:27;;;;;;;3.63;2.60;;;;;;;;;;5031357;28;20199;-73
2022/05/06 10:03:54;;;;;;;6.30;2.30;;;;;;;;;;5014017;28;20188;-73
2022/05/06 10:06:22;;;;;;;3.63;2.53;;;;;;;;;;5029570;28;20242;-73
2022/05/06 10:08:50;;;;;;;5.50;2.50;;;;;;;;;;5013504;28;20227;-73
2022/05/06 10:11:22;;;;;;;3.20;2.43;;;;;;;;;;5013161;28;20199;-72
2022/05/06 10:13:49;;;;;;;4.33;2.60;;;;;;;;;;5029684;28;20203;-72
2022/05/06 10:16:21;;;;;;;5.60;2.50;;;;;;;;;;5029748;28;20191;-73
2022/05/06 10:18:49;;;;;;;4.03;2.43;;;;;;;;;;5013303;28;20214;-74
2022/05/06 10:21:17;;;;;;;2.93;2.13;;;;;;;;;;5029826;28;20587;-74
2022/05/06 10:24:12;;;;;;;3.53;2.30;;;;;;;;;;5030627;28;20249;-74
2022/05/06 10:26:40;;;;;;;2.93;2.27;;;;;;;;;;5030899;28;20206;-73
2022/05/06 10:32:27;;;;;;;3.20;2.17;;;;;;;;;;5031181;28;20187;-74
2022/05/06 10:35:12;;;;;;;3.47;2.27;;;;;;;;;;5012678;28;20669;-71
2022/05/06 10:37:40;;;;;;;3.13;1.90;;;;;;;;;;5030520;28;20202;-71
2022/05/06 10:40:40;;;;;;;2.47;1.57;;;;;;;;;;5042683;28;20268;-72
2022/05/06 10:43:07;;;;;;;4.77;2.53;;;;;;;;;;4996232;28;20755;-71
2022/05/06 10:45:51;;;;;;;4.30;2.73;;;;;;;;;;5035104;28;20221;-72
2022/05/06 10:48:19;;;;;;;4.13;2.50;;;;;;;;;;5032481;28;20776;-73
2022/05/06 10:51:24;;;;;;;3.87;2.33;;;;;;;;;;5035222;28;20285;-73
2022/05/06 10:53:51;;;;;;;3.33;2.50;;;;;;;;;;5050617;28;20198;-72
2022/05/06 10:56:18;;;;;;;2.73;2.37;;;;;;;;;;5050162;28;20305;-73
2022/05/06 10:58:55;;;;;;;5.50;2.80;;;;;;;;;;5016656;28;20248;-72
2022/05/06 11:01:24;;;;;;;5.40;2.60;;;;;;;;;;5032365;28;20220;-73
2022/05/06 11:03:50;;;;;;;4.10;2.77;;;;;;;;;;5049835;28;20248;-72
2022/05/06 11:06:21;;;;;;;6.77;2.57;;;;;;;;;;5031939;28;21052;-72
2022/05/06 11:08:48;;;;;;;3.17;2.00;;;;;;;;;;5014746;28;20222;-73
2022/05/06 11:11:19;;;;;;;4.33;2.13;;;;;;;;;;5032601;28;20207;-72
2022/05/06 11:13:47;;;;;;;2.67;2.30;;;;;;;;;;5015982;28;20210;-74
2022/05/06 11:16:17;;;;;;;4.17;2.20;;;;;;;;;;5032609;28;20269;-73
2022/05/06 11:18:44;;;;;;;3.40;2.10;;;;;;;;;;5049922;28;20193;-73
2022/05/06 11:21:21;;;;;;;6.70;2.20;;;;;;;;;;5032042;28;20191;-72
2022/05/06 11:23:48;;;;;;;5.70;2.30;;;;;;;;;;5049919;28;20226;-72
2022/05/06 11:26:27;;;;;;;3.70;2.53;;;;;;;;;;5015711;28;20201;-73
2022/05/06 11:29:12;;;;;;;3.77;2.83;;;;;;;;;;5049847;28;20547;-74
2022/05/06 11:31:39;;;;;;;5.13;2.87;;;;;;;;;;5031682;28;20256;-73
2022/05/06 11:34:07;;;;;;;5.40;2.53;;;;;;;;;;5032154;28;20288;-73
2022/05/06 11:36:34;;;;;;;4.57;2.80;;;;;;;;;;5049468;28;20190;-74
2022/05/06 11:39:11;;;;;;;4.13;2.40;;;;;;;;;;5046021;28;20176;-73
2022/05/06 11:41:38;;;;;;;3.27;2.70;;;;;;;;;;5028507;28;20666;-73
2022/05/06 11:44:06;;;;;;;2.93;2.27;;;;;;;;;;5029869;28;20524;-72
2022/05/06 11:49:22;;;;;;;3.70;2.53;;;;;;;;;;5029212;28;20223;-72
2022/05/06 11:51:49;;;;;;;4.47;2.67;;;;;;;;;;5011495;28;20199;-73
2022/05/06 11:54:34;;;;;;;3.00;2.10;;;;;;;;;;5028490;28;20179;-73
2022/05/06 11:57:00;;;;;;;2.47;2.10;;;;;;;;;;5011699;28;20275;-74
2022/05/06 11:59:27;;;;;;;3.83;2.30;;;;;;;;;;5011594;28;20861;-73
2022/05/06 12:01:55;;;;;;;3.00;2.33;;;;;;;;;;5028092;28;20183;-74
2022/05/06 12:04:28;;;;;;;5.87;2.40;;;;;;;;;;5028793;28;20597;-73
2022/05/06 12:06:55;;;;;;;2.83;2.37;;;;;;;;;;5011546;28;20230;-73
2022/05/06 12:09:21;;;;;;;2.50;2.23;;;;;;;;;;5011376;28;20308;-74
2022/05/06 12:12:07;;;;;;;3.00;2.03;;;;;;;;;;5028671;28;20226;-73
2022/05/06 12:14:34;;;;;;;3.97;2.60;;;;;;;;;;5028325;28;20558;-73
2022/05/06 12:17:18;;;;;;;4.57;2.50;;;;;;;;;;5027911;28;20178;-73
2022/05/06 12:19:46;;;;;;;5.40;2.57;;;;;;;;;;5027474;28;20187;-73
2022/05/06 12:22:31;;;;;;;8.20;2.80;;;;;;;;;;5028615;28;20184;-73
2022/05/06 12:24:58;;;;;;;4.03;2.23;;;;;;;;;;5011024;28;20234;-73
2022/05/06 12:27:27;;;;;;;2.60;2.10;;;;;;;;;;5028306;28;20211;-74
2022/05/06 12:29:54;;;;;;;2.43;2.03;;;;;;;;;;5029159;28;20191;-74
2022/05/06 12:32:21;;;;;;;2.30;2.10;;;;;;;;;;5027274;28;20191;-73
2022/05/06 12:35:20;;;;;;;5.40;2.50;;;;;;;;;;5011089;28;20203;-73
2022/05/06 12:37:54;;;;;;;4.27;2.73;;;;;;;;;;4995300;28;20566;-73
2022/05/06 12:40:27;;;;;;;4.77;2.40;;;;;;;;;;5042646;28;20195;-74
2022/05/06 12:43:07;;;;;;;4.63;2.53;;;;;;;;;;5048430;28;20773;-73
2022/05/06 12:45:34;;;;;;;2.87;2.20;;;;;;;;;;5031083;28;20186;-73
2022/05/06 12:50:47;;;;;;;3.73;2.50;;;;;;;;;;5033566;28;20182;-73
2022/05/06 12:53:33;;;;;;;3.07;2.50;;;;;;;;;;5033636;28;20641;-73
2022/05/06 12:56:01;;;;;;;4.43;2.60;;;;;;;;;;5030694;28;20198;-74
2022/05/06 12:58:29;;;;;;;7.07;2.70;;;;;;;;;;5030637;28;20557;-74
2022/05/06 13:00:56;;;;;;;3.30;2.40;;;;;;;;;;5030708;28;20209;-74
2022/05/06 13:03:25;;;;;;;4.13;2.47;;;;;;;;;;5030702;28;20190;-74
2022/05/06 13:05:53;;;;;;;2.47;2.10;;;;;;;;;;5030528;28;20194;-72
2022/05/06 13:08:21;;;;;;;3.23;2.17;;;;;;;;;;5047601;28;20231;-73
2022/05/06 13:10:48;;;;;;;3.37;2.00;;;;;;;;;;5030051;28;20194;-73
2022/05/06 13:13:15;;;;;;;3.00;2.10;;;;;;;;;;5030412;28;20202;-72
2022/05/06 13:15:43;;;;;;;4.83;2.10;;;;;;;;;;5030370;28;20701;-72
2022/05/06 13:18:10;;;;;;;2.20;1.73;;;;;;;;;;5030378;28;20190;-72
2022/05/06 13:20:37;;;;;;;2.97;1.70;;;;;;;;;;5030635;28;20245;-72
2022/05/06 13:23:05;;;;;;;4.03;2.00;;;;;;;;;;5030636;28;20558;-72
2022/05/06 13:25:34;;;;;;;3.03;2.00;;;;;;;;;;5047878;28;20215;-73
2022/05/06 13:28:03;;;;;;;2.63;1.73;;;;;;;;;;5047790;28;20187;-73
2022/05/06 13:30:31;;;;;;;3.10;1.77;;;;;;;;;;5047854;28;20189;-73
2022/05/06 13:32:59;;;;;;;3.03;1.97;;;;;;;;;;5051368;28;20175;-73
2022/05/06 13:35:30;;;;;;;2.77;1.80;;;;;;;;;;5034137;28;20206;-73
2022/05/06 13:37:58;;;;;;;3.67;1.90;;;;;;;;;;5033658;28;20555;-73
2022/05/06 13:40:26;;;;;;;2.17;1.60;;;;;;;;;;5036732;28;20195;-73
2022/05/06 13:42:55;;;;;;;1.93;1.63;;;;;;;;;;5014174;28;20287;-73
2022/05/06 13:45:39;;;;;;;2.90;1.87;;;;;;;;;;5031602;28;20286;-72
2022/05/06 13:48:08;;;;;;;3.30;2.10;;;;;;;;;;5031300;28;20240;-73
2022/05/06 13:50:36;;;;;;;3.03;2.00;;;;;;;;;;5031385;28;20241;-72
2022/05/06 13:53:04;;;;;;;3.20;1.70;;;;;;;;;;5012624;28;20202;-73
2022/05/06 14:01:05;;;;;;;2.57;1.80;;;;;;;;;;5013847;28;20201;-72
2022/05/06 14:03:37;;;;;;;3.23;2.30;;;;;;;;;;5031190;28;20230;-72
2022/05/06 14:06:08;;;;;;;3.57;2.20;;;;;;;;;;5013884;28;20223;-72
2022/05/06 14:08:35;;;;;;;4.20;2.23;;;;;;;;;;5029525;28;20223;-71
2022/05/06 14:11:04;;;;;;;4.13;1.93;;;;;;;;;;5029837;28;20276;-73
2022/05/06 14:13:34;;;;;;;7.40;2.30;;;;;;;;;;5013401;28;20199;-73
2022/05/06 14:16:01;;;;;;;3.60;2.20;;;;;;;;;;5013078;28;20666;-73
2022/05/06 14:18:29;;;;;;;3.47;2.00;;;;;;;;;;5029564;28;20204;-73
2022/05/06 14:20:58;;;;;;;2.80;2.20;;;;;;;;;;5031407;28;20192;-74
2022/05/06 14:23:26;;;;;;;4.13;2.30;;;;;;;;;;5029731;28;20195;-73
2022/05/06 14:25:54;;;;;;;3.73;2.10;;;;;;;;;;5029865;28;20550;-73
2022/05/06 14:28:23;;;;;;;4.93;2.00;;;;;;;;;;5030566;28;20200;-73
2022/05/06 14:30:50;;;;;;;5.10;2.23;;;;;;;;;;5029443;28;20183;-73
2022/05/06 14:33:17;;;;;;;2.90;2.27;;;;;;;;;;5031058;28;20199;-73
2022/05/06 14:35:44;;;;;;;3.90;2.57;;;;;;;;;;5029751;28;20280;-73
2022/05/06 14:38:14;;;;;;;5.17;2.57;;;;;;;;;;5013797;28;20578;-73
2022/05/06 14:40:41;;;;;;;3.57;2.30;;;;;;;;;;4992906;28;20200;-74
2022/05/06 14:43:12;;;;;;;3.40;2.40;;;;;;;;;;5013608;28;20196;-73
2022/05/06 14:45:38;;;;;;;2.87;1.93;;;;;;;;;;5027167;28;20203;-73
2022/05/06 14:48:05;;;;;;;2.70;2.17;;;;;;;;;;5007846;28;20203;-74
2022/05/06 14:50:36;;;;;;;4.90;3.03;;;;;;;;;;5012376;28;20191;-73
2022/05/06 14:53:05;;;;;;;3.30;2.57;;;;;;;;;;5029196;28;20282;-74
2022/05/06 14:55:32;;;;;;;5.63;2.30;;;;;;;;;;5000728;28;20200;-76
2022/05/06 14:58:00;;;;;;;6.87;2.40;;;;;;;;;;5001593;28;20200;-77
2022/05/06 15:00:28;;;;;;;3.67;2.43;;;;;;;;;;5030040;28;20196;-77
2022/05/06 15:02:55;;;;;;;4.30;2.47;;;;;;;;;;5012441;28;20187;-77
2022/05/06 15:05:44;;;;;;;4.37;2.43;;;;;;;;;;5031966;28;20631;-78
2022/05/06 15:08:12;;;;;;;3.27;2.53;;;;;;;;;;5029098;28;20206;-78
2022/05/06 15:10:46;;;;;;;5.07;2.17;;;;;;;;;;5007711;28;20287;-79
2022/05/06 15:13:13;;;;;;;10.50;6.73;;;;;;;;;;5016615;28;21721;-78
2022/05/06 15:15:41;;;;;;;10.37;8.37;;;;;;;;;;5005337;28;20587;-76
2022/05/06 15:21:05;;;;;;;12.57;9.10;;;;;;;;;;5029623;28;20270;-76
2022/05/06 15:23:49;;;;;;;18.40;9.93;;;;;;;;;;5028826;28;20227;-75
2022/05/06 15:26:19;;;;;;;11.80;8.30;;;;;;;;;;4973368;28;20196;-75
2022/05/06 15:28:47;;;;;;;16.17;8.83;;;;;;;;;;5007900;28;20216;-75
2022/05/06 15:31:15;;;;;;;13.37;8.47;;;;;;;;;;5006173;28;20624;-76
2022/05/06 15:33:42;;;;;;;15.80;9.13;;;;;;;;;;5026437;28;20191;-80
2022/05/06 15:36:10;;;;;;;12.53;8.53;;;;;;;;;;5012662;28;20188;-74
2022/05/06 15:38:37;;;;;;;13.87;9.40;;;;;;;;;;5022732;28;20188;-75
2022/05/06 15:41:04;;;;;;;15.83;9.33;;;;;;;;;;4999652;28;20196;-76
2022/05/06 15:43:32;;;;;;;18.67;9.93;;;;;;;;;;5005361;28;20209;-75
2022/05/06 15:45:59;;;;;;;15.57;10.00;;;;;;;;;;4977570;28;20200;-76
2022/05/06 15:48:26;;;;;;;14.97;10.70;;;;;;;;;;5015026;28;20970;-76
2022/05/06 15:50:55;;;;;;;14.53;10.03;;;;;;;;;;5020533;28;20198;-76
2022/05/06 15:53:22;;;;;;;13.37;9.37;;;;;;;;;;4994855;28;20615;-76